Time;durP1;ratioP1;P1;durP2;ratioP2;P2;SDS_P1;SDS_P2;PMS_P1;PMS_P2;Temp;Humidity;BMP_temperature;BMP_pressure;BME280_temperature;BME280_humidity;BME280_pressure;Samples;Min_cycle;Max_cycle;Signal;HPM_P1;HPM_P2
2021/06/21 00:00:50;;;;;;;;;;;15.00;97.70;;;;;;5053430;28;19963;-74
2021/06/21 00:03:16;;;;;;;;;;;15.00;97.50;;;;;;5051671;28;20287;-74
2021/06/21 00:05:41;;;;;;;;;;;15.10;97.90;;;;;;5050817;28;19938;-74
2021/06/21 00:08:07;;;;;;;;;;;15.20;97.40;;;;;;5052112;28;19917;-74
2021/06/21 00:10:32;;;;;;;;;;;15.30;97.60;;;;;;5053453;28;19921;-73
2021/06/21 00:12:58;;;;;;;;;;;15.30;97.60;;;;;;5051794;28;19913;-73
2021/06/21 00:15:24;;;;;;;;;;;15.40;97.60;;;;;;5033782;28;20283;-74
2021/06/21 00:17:50;;;;;;;;;;;15.40;97.60;;;;;;5052384;28;20187;-74
2021/06/21 00:20:16;;;;;;;;;;;15.40;97.40;;;;;;5032161;28;19920;-74
2021/06/21 00:22:42;;;;;;;;;;;15.50;97.40;;;;;;5050648;28;19917;-74
2021/06/21 00:25:09;;;;;;;;;;;15.50;97.50;;;;;;5054933;28;20249;-74
2021/06/21 00:27:34;;;;;;;;;;;15.50;97.90;;;;;;5052374;28;19931;-74
2021/06/21 00:30:00;;;;;;;;;;;15.60;97.50;;;;;;5051807;28;20284;-74
2021/06/21 00:32:26;;;;;;;;;;;15.70;97.40;;;;;;5051295;28;19975;-74
2021/06/21 00:34:51;;;;;;;;;;;15.80;97.30;;;;;;5050923;28;19920;-74
2021/06/21 00:37:17;;;;;;;;;;;15.80;97.40;;;;;;5051303;28;19925;-73
2021/06/21 00:39:43;;;;;;;;;;;15.80;97.30;;;;;;5051041;28;20053;-73
2021/06/21 00:42:08;;;;;;;;;;;15.80;97.40;;;;;;5052674;28;19913;-74
2021/06/21 00:44:34;;;;;;;;;;;15.90;97.40;;;;;;5050542;28;19920;-74
2021/06/21 00:46:59;;;;;;;;;;;15.90;97.20;;;;;;5052069;28;19931;-74
2021/06/21 00:49:25;;;;;;;;;;;16.00;97.20;;;;;;5051688;28;20592;-73
2021/06/21 00:51:52;;;;;;;;;;;16.10;96.90;;;;;;5050737;28;19921;-73
2021/06/21 00:54:18;;;;;;;;;;;16.10;96.70;;;;;;5050707;28;19913;-73
2021/06/21 00:56:44;;;;;;;;;;;16.10;96.80;;;;;;5051399;28;19921;-74
2021/06/21 00:59:10;;;;;;;;;;;16.10;96.90;;;;;;5051329;28;19934;-73
2021/06/21 01:01:36;;;;;;;;;;;16.10;97.00;;;;;;5051855;28;20010;-74
2021/06/21 01:04:02;;;;;;;;;;;16.00;96.80;;;;;;5050248;28;19920;-74
2021/06/21 01:06:28;;;;;;;;;;;16.00;97.00;;;;;;5049805;28;19920;-75
2021/06/21 01:08:54;;;;;;;;;;;16.00;97.00;;;;;;5051469;28;19917;-74
2021/06/21 01:11:19;;;;;;;;;;;16.00;97.10;;;;;;5052742;28;20195;-74
2021/06/21 01:13:45;;;;;;;;;;;16.10;97.10;;;;;;5051085;28;21334;-74
2021/06/21 01:16:20;;;;;;;;;;;16.10;96.70;;;;;;5050245;28;19935;-74
2021/06/21 01:18:50;;;;;;;;;;;16.10;96.80;;;;;;5051167;28;20313;-73
2021/06/21 01:21:25;;;;;;;;;;;16.20;96.60;;;;;;5049585;28;19929;-74
2021/06/21 01:24:09;;;;;;;;;;;16.10;96.80;;;;;;5051340;28;19994;-74
2021/06/21 01:26:42;;;;;;;;;;;16.10;96.60;;;;;;5050631;28;20328;-74
2021/06/21 01:29:35;;;;;;;;;;;16.10;96.60;;;;;;5051313;28;19921;-73
2021/06/21 01:32:16;;;;;;;;;;;16.20;96.80;;;;;;5052429;28;20210;-74
2021/06/21 01:34:46;;;;;;;;;;;16.20;96.20;;;;;;5055365;28;19928;-73
2021/06/21 01:37:13;;;;;;;;;;;16.20;96.20;;;;;;5054272;28;20012;-74
2021/06/21 01:39:38;;;;;;;;;;;16.20;96.40;;;;;;5053174;28;20309;-74
2021/06/21 01:42:09;;;;;;;;;;;16.20;96.30;;;;;;5055096;28;19925;-74
2021/06/21 01:44:39;;;;;;;;;;;16.20;96.20;;;;;;5054033;28;19974;-73
2021/06/21 01:47:05;;;;;;;;;;;16.10;96.00;;;;;;5054639;28;19958;-74
2021/06/21 01:49:34;;;;;;;;;;;16.20;96.30;;;;;;5055050;28;21178;-74
2021/06/21 01:52:01;;;;;;;;;;;16.10;96.20;;;;;;5054053;28;19921;-74
2021/06/21 01:54:30;;;;;;;;;;;16.10;96.40;;;;;;5054411;28;19982;-74
2021/06/21 01:56:58;;;;;;;;;;;16.10;96.50;;;;;;5053568;28;20302;-74
2021/06/21 01:59:25;;;;;;;;;;;16.00;96.40;;;;;;5055411;28;19921;-74
2021/06/21 02:01:51;;;;;;;;;;;16.00;96.70;;;;;;5055783;28;20069;-74
2021/06/21 02:04:18;;;;;;;;;;;16.00;96.00;;;;;;5036527;28;19960;-74
2021/06/21 02:06:45;;;;;;;;;;;16.10;96.60;;;;;;5052966;28;19923;-74
2021/06/21 02:09:12;;;;;;;;;;;16.00;96.70;;;;;;5036351;28;19943;-73
2021/06/21 02:11:37;;;;;;;;;;;16.00;96.60;;;;;;5055089;28;19919;-74
2021/06/21 02:14:04;;;;;;;;;;;16.00;96.20;;;;;;5055152;28;19917;-74
2021/06/21 02:16:30;;;;;;;;;;;16.00;96.40;;;;;;5054495;28;20432;-74
2021/06/21 02:18:56;;;;;;;;;;;15.90;96.80;;;;;;5053731;28;19917;-74
2021/06/21 02:21:22;;;;;;;;;;;15.80;96.50;;;;;;5053302;28;19921;-74
2021/06/21 02:23:48;;;;;;;;;;;15.80;96.50;;;;;;5053682;28;19935;-74
2021/06/21 02:26:15;;;;;;;;;;;15.70;96.80;;;;;;5035983;28;19967;-74
2021/06/21 02:28:41;;;;;;;;;;;15.60;97.00;;;;;;5037023;28;20384;-74
2021/06/21 02:31:07;;;;;;;;;;;15.50;97.10;;;;;;5054635;28;19952;-73
2021/06/21 02:33:32;;;;;;;;;;;15.50;97.30;;;;;;5054988;28;19912;-74
2021/06/21 02:35:58;;;;;;;;;;;15.40;97.40;;;;;;5053167;28;19932;-74
2021/06/21 02:38:24;;;;;;;;;;;15.60;97.00;;;;;;5053758;28;19923;-74
2021/06/21 02:40:49;;;;;;;;;;;15.90;95.80;;;;;;5053351;28;20011;-74
2021/06/21 02:43:15;;;;;;;;;;;16.00;95.90;;;;;;5052857;28;19947;-74
2021/06/21 02:45:40;;;;;;;;;;;16.10;95.20;;;;;;5053177;28;19947;-74
2021/06/21 02:48:07;;;;;;;;;;;16.30;95.00;;;;;;5053370;28;21871;-74
2021/06/21 02:50:33;;;;;;;;;;;16.40;94.90;;;;;;5052660;28;19920;-73
2021/06/21 02:53:17;;;;;;;;;;;16.60;94.60;;;;;;5052923;28;19912;-74
2021/06/21 02:55:54;;;;;;;;;;;16.70;94.10;;;;;;5053056;28;20378;-74
2021/06/21 02:58:22;;;;;;;;;;;16.80;93.90;;;;;;5054010;28;19920;-74
2021/06/21 03:00:51;;;;;;;;;;;16.80;94.00;;;;;;5053860;28;19913;-74
2021/06/21 03:03:19;;;;;;;;;;;16.80;93.60;;;;;;5053585;28;19993;-74
2021/06/21 03:05:48;;;;;;;;;;;16.90;93.60;;;;;;5052609;28;19913;-74
2021/06/21 03:08:13;;;;;;;;;;;17.00;93.60;;;;;;5054257;28;19967;-74
2021/06/21 03:10:39;;;;;;;;;;;17.00;93.70;;;;;;5053257;28;19960;-74
2021/06/21 03:13:05;;;;;;;;;;;16.90;93.60;;;;;;5053229;28;19952;-74
2021/06/21 03:15:32;;;;;;;;;;;16.90;93.70;;;;;;5053278;28;19923;-73
2021/06/21 03:17:57;;;;;;;;;;;16.90;93.80;;;;;;5053369;28;19912;-74
2021/06/21 03:20:23;;;;;;;;;;;16.90;93.40;;;;;;5051197;28;19928;-74
2021/06/21 03:22:53;;;;;;;;;;;16.80;93.60;;;;;;5053420;28;19982;-74
2021/06/21 03:25:23;;;;;;;;;;;16.80;93.50;;;;;;5052521;28;19927;-74
2021/06/21 03:27:48;;;;;;;;;;;16.70;94.00;;;;;;5052724;28;19921;-74
2021/06/21 03:30:14;;;;;;;;;;;16.60;94.20;;;;;;5052828;28;19951;-74
2021/06/21 03:32:45;;;;;;;;;;;16.80;93.30;;;;;;5053612;28;20187;-74
2021/06/21 03:35:12;;;;;;;;;;;16.90;94.20;;;;;;5051292;28;20576;-74
2021/06/21 03:37:37;;;;;;;;;;;17.00;93.30;;;;;;5053109;28;19921;-74
2021/06/21 03:40:04;;;;;;;;;;;17.00;93.20;;;;;;5052631;28;19974;-74
2021/06/21 03:42:29;;;;;;;;;;;17.10;93.10;;;;;;5052317;28;20110;-74
2021/06/21 03:44:55;;;;;;;;;;;17.10;92.70;;;;;;5053437;28;20017;-74
2021/06/21 03:47:21;;;;;;;;;;;17.10;93.30;;;;;;5034480;28;19913;-74
2021/06/21 03:49:47;;;;;;;;;;;17.10;93.40;;;;;;5052437;28;20317;-74
2021/06/21 03:52:16;;;;;;;;;;;17.10;93.00;;;;;;5051652;28;19913;-74
2021/06/21 03:54:42;;;;;;;;;;;17.00;93.50;;;;;;5052227;28;20256;-74
2021/06/21 03:57:08;;;;;;;;;;;16.90;93.40;;;;;;5053357;28;19913;-76
2021/06/21 03:59:33;;;;;;;;;;;16.80;93.80;;;;;;5034953;28;20329;-75
2021/06/21 04:01:59;;;;;;;;;;;16.80;93.90;;;;;;5052587;28;19913;-75
2021/06/21 04:04:25;;;;;;;;;;;16.90;94.10;;;;;;5052554;28;19925;-75
2021/06/21 04:06:51;;;;;;;;;;;16.90;93.50;;;;;;5049504;28;19920;-75
2021/06/21 04:09:16;;;;;;;;;;;17.00;93.40;;;;;;5049971;28;20206;-75
2021/06/21 04:11:45;;;;;;;;;;;17.00;93.30;;;;;;5052583;28;20269;-74
2021/06/21 04:14:12;;;;;;;;;;;17.00;93.40;;;;;;5033892;28;19913;-74
2021/06/21 04:16:37;;;;;;;;;;;17.10;93.60;;;;;;5052118;28;19945;-74
2021/06/21 04:19:03;;;;;;;;;;;17.00;93.60;;;;;;5050440;28;20257;-75
2021/06/21 04:21:28;;;;;;;;;;;17.10;92.80;;;;;;5032777;28;19928;-74
2021/06/21 04:23:55;;;;;;;;;;;17.10;93.00;;;;;;5050834;28;19921;-74
2021/06/21 04:26:21;;;;;;;;;;;17.20;92.40;;;;;;5049919;28;20217;-74
2021/06/21 04:28:49;;;;;;;;;;;17.20;92.40;;;;;;5049909;28;19920;-74
2021/06/21 04:31:15;;;;;;;;;;;17.20;92.70;;;;;;5051602;28;20024;-74
2021/06/21 04:33:40;;;;;;;;;;;17.20;93.50;;;;;;5051422;28;20699;-74
2021/06/21 04:36:06;;;;;;;;;;;17.30;92.40;;;;;;5048437;28;19917;-74
2021/06/21 04:38:32;;;;;;;;;;;17.40;92.90;;;;;;5034189;28;19996;-74
2021/06/21 04:40:57;;;;;;;;;;;17.40;91.90;;;;;;5051848;28;19931;-73
2021/06/21 04:43:23;;;;;;;;;;;17.50;92.40;;;;;;5052155;28;19931;-73
2021/06/21 04:45:48;;;;;;;;;;;17.50;92.50;;;;;;5051256;28;20315;-74
2021/06/21 04:48:14;;;;;;;;;;;17.40;92.40;;;;;;5033140;28;19921;-73
2021/06/21 04:50:41;;;;;;;;;;;17.40;92.50;;;;;;5050253;28;19974;-74
2021/06/21 04:53:09;;;;;;;;;;;17.30;92.30;;;;;;5051254;28;19951;-73
2021/06/21 04:55:35;;;;;;;;;;;17.20;92.70;;;;;;5051327;28;19917;-73
2021/06/21 04:58:00;;;;;;;;;;;17.10;93.10;;;;;;5051182;28;19919;-74
2021/06/21 05:00:26;;;;;;;;;;;17.00;93.00;;;;;;5050268;28;19913;-74
2021/06/21 05:02:51;;;;;;;;;;;17.00;93.10;;;;;;5050764;28;19921;-73
2021/06/21 05:05:18;;;;;;;;;;;17.10;92.80;;;;;;5031816;28;19974;-73
2021/06/21 05:07:46;;;;;;;;;;;17.10;93.90;;;;;;5050408;28;20004;-74
2021/06/21 05:10:12;;;;;;;;;;;17.10;93.20;;;;;;5051856;28;19913;-73
2021/06/21 05:12:38;;;;;;;;;;;17.20;93.70;;;;;;5050450;28;19920;-74
2021/06/21 05:15:04;;;;;;;;;;;17.20;93.80;;;;;;5032381;28;19948;-74
2021/06/21 05:17:30;;;;;;;;;;;17.20;94.10;;;;;;5032572;28;19921;-74
2021/06/21 05:19:55;;;;;;;;;;;17.20;94.00;;;;;;5049914;28;20007;-73
2021/06/21 05:22:21;;;;;;;;;;;17.30;93.90;;;;;;5050727;28;19963;-74
2021/06/21 05:24:46;;;;;;;;;;;17.30;94.10;;;;;;5050716;28;19974;-73
2021/06/21 05:27:12;;;;;;;;;;;17.40;94.00;;;;;;5052970;28;19913;-73
2021/06/21 05:29:37;;;;;;;;;;;17.60;93.80;;;;;;5051308;28;19978;-73
2021/06/21 05:32:03;;;;;;;;;;;17.70;94.00;;;;;;5045855;28;19921;-73
2021/06/21 05:34:29;;;;;;;;;;;18.00;93.60;;;;;;5036229;28;19920;-73
2021/06/21 05:36:55;;;;;;;;;;;18.20;92.10;;;;;;5049435;28;19913;-73
2021/06/21 05:39:21;;;;;;;;;;;18.50;92.50;;;;;;5047311;28;19913;-73
2021/06/21 05:41:46;;;;;;;;;;;18.60;92.40;;;;;;5056100;28;19913;-73
2021/06/21 05:44:12;;;;;;;;;;;18.70;91.70;;;;;;5053825;28;19923;-73
2021/06/21 05:46:38;;;;;;;;;;;18.80;92.10;;;;;;5037725;28;19983;-73
2021/06/21 05:49:03;;;;;;;;;;;18.90;91.90;;;;;;5055987;28;19947;-73
2021/06/21 05:51:29;;;;;;;;;;;19.20;92.00;;;;;;5055037;28;19947;-73
2021/06/21 05:53:54;;;;;;;;;;;19.50;91.60;;;;;;5055829;28;20305;-74
2021/06/21 05:56:20;;;;;;;;;;;19.70;91.20;;;;;;5055030;28;20031;-74
2021/06/21 05:58:45;;;;;;;;;;;19.80;89.70;;;;;;5055642;28;19924;-73
2021/06/21 06:01:11;;;;;;;;;;;19.90;87.90;;;;;;5052453;28;19913;-73
2021/06/21 06:03:36;;;;;;;;;;;20.00;89.30;;;;;;5056052;28;19912;-74
2021/06/21 06:06:02;;;;;;;;;;;20.10;88.80;;;;;;5037317;28;19939;-73
2021/06/21 06:08:28;;;;;;;;;;;20.20;87.70;;;;;;5036036;28;19909;-74
2021/06/21 06:10:53;;;;;;;;;;;20.20;87.10;;;;;;5038496;28;20207;-74
2021/06/21 06:13:19;;;;;;;;;;;20.40;87.20;;;;;;5055794;28;19908;-74
2021/06/21 06:15:45;;;;;;;;;;;20.60;86.70;;;;;;5055767;28;19948;-73
2021/06/21 06:18:10;;;;;;;;;;;20.50;86.70;;;;;;5044814;28;20224;-73
2021/06/21 06:20:36;;;;;;;;;;;20.10;86.60;;;;;;5038428;28;20212;-74
2021/06/21 06:23:04;;;;;;;;;;;20.20;87.60;;;;;;5039577;28;19909;-74
2021/06/21 06:25:30;;;;;;;;;;;20.30;86.10;;;;;;5039464;28;19916;-73
2021/06/21 06:27:56;;;;;;;;;;;20.20;85.60;;;;;;5048808;28;19936;-73
2021/06/21 06:30:22;;;;;;;;;;;20.10;86.20;;;;;;5059001;28;19917;-73
2021/06/21 06:32:47;;;;;;;;;;;20.00;85.40;;;;;;5058872;28;20289;-73
2021/06/21 06:35:13;;;;;;;;;;;19.90;85.70;;;;;;5057804;28;20362;-73
2021/06/21 06:37:39;;;;;;;;;;;19.80;86.30;;;;;;5052861;28;19957;-73
2021/06/21 06:40:05;;;;;;;;;;;19.70;88.10;;;;;;5047227;28;19947;-73
2021/06/21 06:42:30;;;;;;;;;;;19.90;87.50;;;;;;5026819;28;19957;-73
2021/06/21 06:44:56;;;;;;;;;;;19.90;87.00;;;;;;5039198;28;19971;-73
2021/06/21 06:47:22;;;;;;;;;;;20.10;87.70;;;;;;5045640;28;20373;-74
2021/06/21 06:49:47;;;;;;;;;;;20.40;86.10;;;;;;5040823;28;19909;-73
2021/06/21 06:52:14;;;;;;;;;;;20.60;83.80;;;;;;5058348;28;20253;-74
2021/06/21 06:57:24;;;;;;;;;;;21.00;84.00;;;;;;5048304;28;19986;-73
2021/06/21 06:59:50;;;;;;;;;;;21.20;80.80;;;;;;5058359;28;19912;-74
2021/06/21 07:02:22;;;;;;;;;;;21.30;79.50;;;;;;5040462;28;19913;-74
2021/06/21 07:04:48;;;;;;;;;;;21.10;80.20;;;;;;5056947;28;19967;-73
2021/06/21 07:07:14;;;;;;;;;;;21.10;80.90;;;;;;5056317;28;20190;-74
2021/06/21 07:09:40;;;;;;;;;;;21.10;78.50;;;;;;5058626;28;19915;-74
2021/06/21 07:12:06;;;;;;;;;;;21.40;79.80;;;;;;5039202;28;19913;-73
2021/06/21 07:14:31;;;;;;;;;;;21.50;78.20;;;;;;5055241;28;19974;-73
2021/06/21 07:17:00;;;;;;;;;;;21.60;77.60;;;;;;5058319;28;20319;-73
2021/06/21 07:19:26;;;;;;;;;;;21.40;79.20;;;;;;5058290;28;19916;-73
2021/06/21 07:21:51;;;;;;;;;;;21.50;78.50;;;;;;5056387;28;19933;-73
2021/06/21 07:24:17;;;;;;;;;;;21.70;78.00;;;;;;5045610;28;19948;-73
2021/06/21 07:26:43;;;;;;;;;;;22.40;76.60;;;;;;5048605;28;19916;-74
2021/06/21 07:29:09;;;;;;;;;;;23.40;74.10;;;;;;5057879;28;19909;-73
2021/06/21 07:31:34;;;;;;;;;;;24.20;72.00;;;;;;5040198;28;19920;-73
2021/06/21 07:34:00;;;;;;;;;;;24.50;69.60;;;;;;5049695;28;20003;-74
2021/06/21 07:36:26;;;;;;;;;;;24.60;70.80;;;;;;5049131;28;20247;-73
2021/06/21 07:38:52;;;;;;;;;;;24.80;69.90;;;;;;5057984;28;19963;-73
2021/06/21 07:41:18;;;;;;;;;;;25.10;69.30;;;;;;5057787;28;19917;-74
2021/06/21 07:43:43;;;;;;;;;;;25.10;68.90;;;;;;5058070;28;19999;-74
2021/06/21 07:46:09;;;;;;;;;;;25.30;69.20;;;;;;5056849;28;19935;-74
2021/06/21 07:48:37;;;;;;;;;;;25.10;68.70;;;;;;5056548;28;19913;-74
2021/06/21 07:51:03;;;;;;;;;;;24.40;68.60;;;;;;5056567;28;20310;-74
2021/06/21 07:53:29;;;;;;;;;;;23.90;70.30;;;;;;5057186;28;20314;-74
2021/06/21 07:55:54;;;;;;;;;;;24.00;70.30;;;;;;5057014;28;19964;-74
2021/06/21 07:58:20;;;;;;;;;;;24.50;68.60;;;;;;5057290;28;20301;-74
2021/06/21 08:00:46;;;;;;;;;;;24.70;67.00;;;;;;5057726;28;19916;-73
2021/06/21 08:03:12;;;;;;;;;;;25.90;66.60;;;;;;5057354;28;19920;-74
2021/06/21 08:05:38;;;;;;;;;;;26.90;66.40;;;;;;5055564;28;19947;-74
2021/06/21 08:08:04;;;;;;;;;;;27.40;64.60;;;;;;5056986;28;19920;-74
2021/06/21 08:10:30;;;;;;;;;;;27.80;62.60;;;;;;5057127;28;20321;-74
2021/06/21 08:12:56;;;;;;;;;;;28.40;61.10;;;;;;5057687;28;20008;-74
2021/06/21 08:15:22;;;;;;;;;;;28.30;60.90;;;;;;5056573;28;19913;-74
2021/06/21 08:17:47;;;;;;;;;;;28.50;60.10;;;;;;5057405;28;19913;-74
2021/06/21 08:20:13;;;;;;;;;;;28.20;61.30;;;;;;5056106;28;19950;-74
2021/06/21 08:22:39;;;;;;;;;;;27.70;62.80;;;;;;5056211;28;19916;-74
2021/06/21 08:25:08;;;;;;;;;;;28.10;61.80;;;;;;5038106;28;20016;-74
2021/06/21 08:27:34;;;;;;;;;;;27.90;61.50;;;;;;5053829;28;20240;-74
2021/06/21 08:30:00;;;;;;;;;;;27.80;61.80;;;;;;5045052;28;20014;-74
2021/06/21 08:32:26;;;;;;;;;;;27.10;64.20;;;;;;5053623;28;20313;-74
2021/06/21 08:34:51;;;;;;;;;;;27.60;64.80;;;;;;5055177;28;19967;-75
2021/06/21 08:37:18;;;;;;;;;;;27.80;63.60;;;;;;5056770;28;19920;-75
2021/06/21 08:39:44;;;;;;;;;;;27.20;62.10;;;;;;5056581;28;19913;-78
2021/06/21 08:42:28;;;;;;;;;;;26.70;63.70;;;;;;5049960;28;20322;-91
2021/06/21 08:44:54;;;;;;;;;;;27.30;64.90;;;;;;5038234;28;19960;-90
2021/06/21 08:47:21;;;;;;;;;;;27.80;59.70;;;;;;5052682;28;20375;-90
2021/06/21 08:49:47;;;;;;;;;;;27.50;57.60;;;;;;5034402;28;19917;-89
2021/06/21 08:52:15;;;;;;;;;;;27.30;61.60;;;;;;5056713;28;20377;-89
2021/06/21 08:54:41;;;;;;;;;;;28.50;59.80;;;;;;5052969;28;19920;-89
2021/06/21 08:57:07;;;;;;;;;;;30.00;57.20;;;;;;5025467;28;19923;-89
2021/06/21 08:59:33;;;;;;;;;;;30.40;55.30;;;;;;5028464;28;20004;-89
2021/06/21 09:01:59;;;;;;;;;;;30.80;55.70;;;;;;5019099;28;19917;-90
2021/06/21 09:04:25;;;;;;;;;;;30.70;54.10;;;;;;5025694;28;19916;-89
2021/06/21 09:06:50;;;;;;;;;;;29.30;57.60;;;;;;5017933;28;20226;-89
2021/06/21 09:09:16;;;;;;;;;;;29.00;59.50;;;;;;5036630;28;19913;-89
2021/06/21 09:11:45;;;;;;;;;;;30.20;57.00;;;;;;5036554;28;20233;-88
2021/06/21 09:14:26;;;;;;;;;;;31.20;55.60;;;;;;5037015;28;19914;-89
2021/06/21 09:16:52;;;;;;;;;;;31.50;54.70;;;;;;5038095;28;19924;-89
2021/06/21 09:19:18;;;;;;;;;;;31.50;56.00;;;;;;5056316;28;19915;-88
2021/06/21 09:21:44;;;;;;;;;;;31.20;56.30;;;;;;5055072;28;19921;-88
2021/06/21 09:24:20;;;;;;;;;;;31.20;55.00;;;;;;5055678;28;19932;-88
2021/06/21 09:26:50;;;;;;;;;;;31.20;56.10;;;;;;5043749;28;19939;-88
2021/06/21 09:29:16;;;;;;;;;;;30.70;53.40;;;;;;5038548;28;20294;-88
2021/06/21 09:31:52;;;;;;;;;;;30.40;53.30;;;;;;5056244;28;19909;-88
2021/06/21 09:34:18;;;;;;;;;;;30.00;55.90;;;;;;5055995;28;20367;-88
2021/06/21 09:36:44;;;;;;;;;;;30.20;54.30;;;;;;5035125;28;19913;-87
2021/06/21 09:39:20;;;;;;;;;;;30.50;54.70;;;;;;5036191;28;19916;-87
2021/06/21 09:42:05;;;;;;;;;;;30.70;54.50;;;;;;5036266;28;19941;-87
2021/06/21 09:44:31;;;;;;;;;;;30.10;54.50;;;;;;5025720;28;19967;-87
2021/06/21 09:47:16;;;;;;;;;;;29.50;57.20;;;;;;5046763;28;19916;-89
2021/06/21 09:49:53;;;;;;;;;;;29.70;56.60;;;;;;5055242;28;19913;-87
2021/06/21 09:52:38;;;;;;;;;;;30.30;55.20;;;;;;5038724;28;20574;-88
2021/06/21 09:55:12;;;;;;;;;;;30.70;55.20;;;;;;5059725;28;19917;-89
2021/06/21 09:57:38;;;;;;;;;;;30.40;56.00;;;;;;5057968;28;19982;-89
2021/06/21 10:00:05;;;;;;;;;;;30.70;55.50;;;;;;5030693;28;19913;-89
2021/06/21 10:02:31;;;;;;;;;;;31.10;53.70;;;;;;5059945;28;19962;-88
2021/06/21 10:04:57;;;;;;;;;;;31.00;53.30;;;;;;5058626;28;20305;-87
2021/06/21 10:07:33;;;;;;;;;;;30.20;54.80;;;;;;5030074;28;19940;-87
2021/06/21 10:10:09;;;;;;;;;;;29.50;56.30;;;;;;5039971;28;19909;-87
2021/06/21 10:12:35;;;;;;;;;;;29.40;58.00;;;;;;5039835;28;19917;-87
2021/06/21 10:15:00;;;;;;;;;;;29.80;57.10;;;;;;5039902;28;19910;-87
2021/06/21 10:17:26;;;;;;;;;;;29.80;56.70;;;;;;5033932;28;20309;-88
2021/06/21 10:19:55;;;;;;;;;;;29.70;57.70;;;;;;5058367;28;19913;-87
2021/06/21 10:22:24;;;;;;;;;;;29.70;56.40;;;;;;5059526;28;19921;-87
2021/06/21 10:24:55;;;;;;;;;;;29.30;57.00;;;;;;5059154;28;19912;-87
2021/06/21 10:27:20;;;;;;;;;;;29.00;58.00;;;;;;5048452;28;19920;-87
2021/06/21 10:29:47;;;;;;;;;;;28.70;59.10;;;;;;5039501;28;19999;-86
2021/06/21 10:32:13;;;;;;;;;;;28.30;57.70;;;;;;5021860;28;19909;-86
2021/06/21 10:34:39;;;;;;;;;;;28.20;58.70;;;;;;5039291;28;19963;-86
2021/06/21 10:37:11;;;;;;;;;;;28.40;57.40;;;;;;5029291;28;19920;-86
2021/06/21 10:39:43;;;;;;;;;;;28.50;56.60;;;;;;5059289;28;19916;-86
2021/06/21 10:42:10;;;;;;;;;;;28.50;56.70;;;;;;5041686;28;19996;-87
2021/06/21 10:44:46;;;;;;;;;;;28.10;59.10;;;;;;5059022;28;19912;-87
2021/06/21 10:47:30;;;;;;;;;;;28.40;58.00;;;;;;5050145;28;20333;-87
2021/06/21 10:49:55;;;;;;;;;;;28.70;57.50;;;;;;5040532;28;19913;-88
2021/06/21 10:52:31;;;;;;;;;;;29.10;56.50;;;;;;5041111;28;20420;-88
2021/06/21 10:55:16;;;;;;;;;;;28.50;58.40;;;;;;5057980;28;20008;-88
2021/06/21 10:57:41;;;;;;;;;;;28.80;58.20;;;;;;5028953;28;19924;-88
2021/06/21 11:00:10;;;;;;;;;;;28.80;58.40;;;;;;5049420;28;19913;-88
2021/06/21 11:02:37;;;;;;;;;;;28.90;59.50;;;;;;5047568;28;19918;-88
2021/06/21 11:05:02;;;;;;;;;;;29.40;57.60;;;;;;5048037;28;19952;-89
2021/06/21 11:07:28;;;;;;;;;;;29.90;57.80;;;;;;5031004;28;19959;-88
2021/06/21 11:09:55;;;;;;;;;;;30.30;57.90;;;;;;5048508;28;19917;-88
2021/06/21 11:12:21;;;;;;;;;;;30.50;57.70;;;;;;5058756;28;19917;-89
2021/06/21 11:15:08;;;;;;;;;;;30.50;56.10;;;;;;5058291;28;20301;-89
2021/06/21 11:17:45;;;;;;;;;;;30.40;57.90;;;;;;5057700;28;19929;-89
2021/06/21 11:20:27;;;;;;;;;;;30.30;57.40;;;;;;5056726;28;19913;-88
2021/06/21 11:22:57;;;;;;;;;;;29.90;58.00;;;;;;5058482;28;19921;-89
2021/06/21 11:25:24;;;;;;;;;;;28.30;61.90;;;;;;5046818;28;20318;-88
2021/06/21 11:27:51;;;;;;;;;;;27.80;64.10;;;;;;5038755;28;20004;-88
2021/06/21 11:30:35;;;;;;;;;;;28.60;63.30;;;;;;5040803;28;19913;-88
2021/06/21 11:33:05;;;;;;;;;;;28.40;62.00;;;;;;5027973;28;19913;-88
2021/06/21 11:36:01;;;;;;;;;;;28.90;62.00;;;;;;5039394;28;20217;-88
2021/06/21 11:38:31;;;;;;;;;;;29.50;61.10;;;;;;5035701;28;19930;-88
2021/06/21 11:41:15;;;;;;;;;;;29.60;61.90;;;;;;5057724;28;19923;-89
2021/06/21 11:43:45;;;;;;;;;;;29.40;59.50;;;;;;5057543;28;19913;-89
2021/06/21 11:46:11;;;;;;;;;;;29.60;60.50;;;;;;5057999;28;19923;-89
2021/06/21 11:48:38;;;;;;;;;;;29.70;57.80;;;;;;5052271;28;19913;-89
2021/06/21 11:51:16;;;;;;;;;;;29.50;59.50;;;;;;5055641;28;19964;-89
2021/06/21 11:53:43;;;;;;;;;;;30.00;62.00;;;;;;5040088;28;19939;-89
2021/06/21 11:56:11;;;;;;;;;;;30.80;58.60;;;;;;5057608;28;19919;-89
2021/06/21 11:58:37;;;;;;;;;;;31.10;57.60;;;;;;5057545;28;19913;-89
2021/06/21 12:01:13;;;;;;;;;;;31.20;59.10;;;;;;5049845;28;19963;-89
2021/06/21 12:03:43;;;;;;;;;;;30.00;59.30;;;;;;5056707;28;19958;-89
2021/06/21 12:06:15;;;;;;;;;;;28.90;60.70;;;;;;5055982;28;19915;-89
2021/06/21 12:08:41;;;;;;;;;;;28.90;60.50;;;;;;5039740;28;19939;-89
2021/06/21 12:11:12;;;;;;;;;;;29.40;59.60;;;;;;5038833;28;19913;-87
2021/06/21 12:13:38;;;;;;;;;;;29.70;58.60;;;;;;5057579;28;19909;-87
2021/06/21 12:16:07;;;;;;;;;;;29.90;56.90;;;;;;5056882;28;19974;-88
2021/06/21 12:18:35;;;;;;;;;;;30.10;57.90;;;;;;5055978;28;20048;-90
2021/06/21 12:21:01;;;;;;;;;;;30.20;58.90;;;;;;5036626;28;19928;-89
2021/06/21 12:23:29;;;;;;;;;;;30.30;58.50;;;;;;5039108;28;19913;-89
2021/06/21 12:25:55;;;;;;;;;;;30.70;57.80;;;;;;5039153;28;20305;-89
2021/06/21 12:28:25;;;;;;;;;;;30.80;56.00;;;;;;5039080;28;19957;-89
2021/06/21 12:30:51;;;;;;;;;;;30.60;55.70;;;;;;5056795;28;19931;-89
2021/06/21 12:33:20;;;;;;;;;;;30.00;56.10;;;;;;5039203;28;20314;-90
2021/06/21 12:36:14;;;;;;;;;;;29.80;56.10;;;;;;5037736;28;19917;-90
2021/06/21 12:38:44;;;;;;;;;;;30.00;57.20;;;;;;5038327;28;19920;-90
2021/06/21 12:41:21;;;;;;;;;;;29.90;57.60;;;;;;5056697;28;19913;-91
2021/06/21 12:43:53;;;;;;;;;;;30.10;58.00;;;;;;5056683;28;19920;-90
2021/06/21 12:46:20;;;;;;;;;;;30.20;55.70;;;;;;5038779;28;20320;-91
2021/06/21 12:48:45;;;;;;;;;;;30.80;56.50;;;;;;5050242;28;19917;-91
2021/06/21 12:51:12;;;;;;;;;;;30.60;57.10;;;;;;5055537;28;19915;-90
2021/06/21 12:53:42;;;;;;;;;;;30.80;57.60;;;;;;5038626;28;19913;-90
2021/06/21 12:56:07;;;;;;;;;;;30.80;56.00;;;;;;5038627;28;20455;-90
2021/06/21 12:58:33;;;;;;;;;;;30.50;55.10;;;;;;5051458;28;19921;-90
2021/06/21 13:01:01;;;;;;;;;;;30.80;56.50;;;;;;5053421;28;19939;-90
2021/06/21 13:03:26;;;;;;;;;;;31.00;56.70;;;;;;5046877;28;19955;-90
2021/06/21 13:05:56;;;;;;;;;;;30.80;54.80;;;;;;5053642;28;19995;-90
2021/06/21 13:08:32;;;;;;;;;;;29.60;55.80;;;;;;5056386;28;19912;-90
2021/06/21 13:11:16;;;;;;;;;;;29.30;58.20;;;;;;5038770;28;19908;-90
2021/06/21 13:13:44;;;;;;;;;;;29.90;55.70;;;;;;5056139;28;19919;-90
2021/06/21 13:16:13;;;;;;;;;;;30.00;55.50;;;;;;5031208;28;19970;-90
2021/06/21 13:18:53;;;;;;;;;;;30.20;57.80;;;;;;5038036;28;20302;-90
2021/06/21 13:21:37;;;;;;;;;;;29.80;53.30;;;;;;5053425;28;19925;-91
2021/06/21 13:24:08;;;;;;;;;;;29.80;54.20;;;;;;5055896;28;19952;-90
2021/06/21 13:26:45;;;;;;;;;;;30.20;55.00;;;;;;5031510;28;19947;-91
2021/06/21 13:29:23;;;;;;;;;;;30.70;56.30;;;;;;5037850;28;19913;-90
2021/06/21 13:31:49;;;;;;;;;;;30.80;56.40;;;;;;5038291;28;19920;-87
2021/06/21 13:34:34;;;;;;;;;;;31.00;56.70;;;;;;5055712;28;19912;-90
2021/06/21 13:37:02;;;;;;;;;;;31.50;57.80;;;;;;5054289;28;19916;-91
2021/06/21 13:39:27;;;;;;;;;;;32.30;55.70;;;;;;5037827;28;19913;-89
2021/06/21 13:42:09;;;;;;;;;;;31.90;54.70;;;;;;5038493;28;19963;-91
2021/06/21 13:44:35;;;;;;;;;;;31.70;53.50;;;;;;5035509;28;19936;-90
2021/06/21 13:47:03;;;;;;;;;;;31.00;55.60;;;;;;5018770;28;19917;-91
2021/06/21 13:49:35;;;;;;;;;;;31.20;54.20;;;;;;5034184;28;19913;-91
2021/06/21 13:52:20;;;;;;;;;;;31.20;53.30;;;;;;5054174;28;20357;-91
2021/06/21 13:54:56;;;;;;;;;;;30.70;54.30;;;;;;5028359;28;20416;-91
2021/06/21 13:57:53;;;;;;;;;;;;;;;;;;;;;
2021/06/21 14:00:54;;;;;;;;;;;31.30;52.50;;;;;;5035950;28;19913;-91
2021/06/21 14:03:27;;;;;;;;;;;32.20;53.80;;;;;;5030796;28;19913;-91
2021/06/21 14:06:17;;;;;;;;;;;32.60;50.50;;;;;;5048265;28;20013;-92
2021/06/21 14:08:53;;;;;;;;;;;32.40;52.30;;;;;;5038231;28;19913;-91
2021/06/21 14:11:35;;;;;;;;;;;33.10;50.90;;;;;;5024604;28;19919;-91
2021/06/21 14:14:38;;;;;;;;;;;33.60;50.20;;;;;;5055975;28;19996;-91
2021/06/21 14:17:33;;;;;;;;;;;33.70;48.70;;;;;;5001082;28;19920;-91
2021/06/21 14:20:33;;;;;;;;;;;33.00;49.40;;;;;;5052381;28;19916;-92
2021/06/21 14:23:15;;;;;;;;;;;32.20;49.80;;;;;;5016721;28;19921;-92
2021/06/21 14:25:47;;;;;;;;;;;31.90;51.40;;;;;;5035211;28;20293;-92
2021/06/21 14:28:23;;;;;;;;;;;32.20;50.40;;;;;;5035898;28;20336;-91
2021/06/21 14:31:21;;;;;;;;;;;32.60;51.10;;;;;;5031013;28;19909;-91